createdAt,value
2023-03-29T00:02:48.882Z,43.45
2023-03-29T00:08:14.849Z,43.67
2023-03-29T00:13:37.004Z,43.33
2023-03-29T00:18:59.316Z,43.45
2023-03-29T00:24:21.619Z,43.21
2023-03-29T00:29:43.528Z,43.30
2023-03-29T00:35:06.587Z,43.50
2023-03-29T00:40:28.430Z,43.34
2023-03-29T00:45:50.284Z,43.40
2023-03-29T00:51:14.646Z,43.52
2023-03-29T00:56:40.231Z,43.65
2023-03-29T01:02:04.055Z,43.89
2023-03-29T01:07:31.174Z,43.59
2023-03-29T01:13:05.302Z,43.90
2023-03-29T01:18:27.159Z,43.78
2023-03-29T01:24:09.730Z,43.98
2023-03-29T01:29:49.214Z,43.51
2023-03-29T01:35:11.082Z,43.65
2023-03-29T01:40:34.124Z,43.90
2023-03-29T01:46:03.283Z,43.87
2023-03-29T01:52:02.090Z,43.60
2023-03-29T01:57:26.418Z,43.95
2023-03-29T02:02:50.418Z,43.96
2023-03-29T02:08:15.766Z,43.97
2023-03-29T02:13:37.651Z,43.51
2023-03-29T02:18:59.776Z,43.75
2023-03-29T02:24:24.518Z,43.63
2023-03-29T02:29:48.025Z,43.67
2023-03-29T02:35:22.247Z,43.91
2023-03-29T02:40:44.401Z,43.73
2023-03-29T02:46:08.093Z,43.96
2023-03-29T02:51:34.502Z,44.01
2023-03-29T02:57:02.805Z,43.65
2023-03-29T03:02:28.084Z,44.03
2023-03-29T03:07:50.040Z,43.72
2023-03-29T03:13:13.110Z,43.60
2023-03-29T03:18:34.914Z,43.63
2023-03-29T03:23:56.692Z,43.67
2023-03-29T03:29:19.452Z,43.69
2023-03-29T03:34:41.417Z,43.67
2023-03-29T03:40:09.176Z,43.68
2023-03-29T03:45:31.639Z,43.58
2023-03-29T03:50:56.045Z,43.87
2023-03-29T03:56:17.989Z,43.53
2023-03-29T04:01:43.833Z,43.64
2023-03-29T04:07:06.100Z,43.68
2023-03-29T04:12:27.892Z,43.66
2023-03-29T04:17:49.681Z,43.77
2023-03-29T04:23:11.735Z,43.88
2023-03-29T04:28:33.786Z,43.60
2023-03-29T04:33:56.328Z,43.99
2023-03-29T04:39:19.627Z,43.77
2023-03-29T04:44:42.974Z,44.01
2023-03-29T04:50:05.577Z,43.60
2023-03-29T04:55:27.445Z,43.97
2023-03-29T05:00:49.809Z,43.57
2023-03-29T05:06:12.579Z,44.04
2023-03-29T05:11:34.996Z,44.26
2023-03-29T05:16:56.851Z,43.35
2023-03-29T05:22:19.101Z,43.06
2023-03-29T05:27:40.908Z,42.78
2023-03-29T05:33:02.859Z,42.64
2023-03-29T05:38:24.635Z,42.49
2023-03-29T05:43:46.995Z,41.99
2023-03-29T05:49:08.958Z,42.23
2023-03-29T05:54:30.942Z,42.44
2023-03-29T05:59:53.537Z,42.42
2023-03-29T06:05:16.410Z,42.63
2023-03-29T06:10:38.414Z,42.77
2023-03-29T06:16:01.326Z,42.92
2023-03-29T06:21:23.715Z,42.72
2023-03-29T06:26:46.900Z,43.05
2023-03-29T06:32:08.748Z,43.05
2023-03-29T06:37:32.215Z,42.71
2023-03-29T06:42:58.198Z,43.29
2023-03-29T06:48:19.973Z,43.05
2023-03-29T06:53:41.943Z,42.80
2023-03-29T06:59:03.746Z,42.71
2023-03-29T07:04:25.583Z,42.68
2023-03-29T07:09:54.518Z,42.28
2023-03-29T07:15:16.501Z,42.16
2023-03-29T07:20:42.707Z,42.19
2023-03-29T07:26:07.818Z,41.60
2023-03-29T07:31:29.963Z,41.81
2023-03-29T07:36:52.311Z,41.98
2023-03-29T07:42:14.125Z,41.58
2023-03-29T07:47:35.934Z,41.76
2023-03-29T07:52:57.878Z,41.80
2023-03-29T07:58:20.442Z,41.99
2023-03-29T08:03:42.820Z,41.86
2023-03-29T08:09:04.624Z,42.19
2023-03-29T08:14:26.725Z,42.01
2023-03-29T08:19:51.308Z,41.38
2023-03-29T08:25:13.976Z,41.48
2023-03-29T08:30:36.419Z,40.87
2023-03-29T08:35:58.332Z,40.46
2023-03-29T08:41:35.773Z,40.54
2023-03-29T08:47:07.481Z,40.21
2023-03-29T08:52:38.162Z,39.52
2023-03-29T08:58:02.802Z,39.88
2023-03-29T09:03:29.350Z,39.87
2023-03-29T09:08:53.497Z,39.75
2023-03-29T09:14:26.047Z,39.86
2023-03-29T09:20:04.315Z,39.63
2023-03-29T09:25:50.825Z,40.22
2023-03-29T09:31:23.217Z,39.96
2023-03-29T09:37:08.250Z,40.33
2023-03-29T09:42:31.584Z,40.26
2023-03-29T09:48:09.390Z,40.28
2023-03-29T09:53:32.268Z,40.35
2023-03-29T09:58:54.202Z,40.57
2023-03-29T10:04:19.046Z,40.60
2023-03-29T10:09:44.336Z,40.28
2023-03-29T10:15:11.653Z,40.61
2023-03-29T10:20:38.226Z,40.37
2023-03-29T10:26:04.512Z,40.52
2023-03-29T10:31:31.629Z,40.64
2023-03-29T10:37:01.461Z,40.39
2023-03-29T10:42:25.638Z,40.40
2023-03-29T10:47:49.042Z,39.90
2023-03-29T10:53:32.951Z,40.17
2023-03-29T10:59:23.273Z,39.69
2023-03-29T11:04:52.792Z,39.69
2023-03-29T11:10:35.653Z,39.72
2023-03-29T11:16:00.244Z,39.72
2023-03-29T11:21:22.428Z,39.78
2023-03-29T11:27:28.990Z,39.64
2023-03-29T11:33:12.073Z,39.85
2023-03-29T11:38:42.784Z,39.89
2023-03-29T11:44:22.517Z,39.60
2023-03-29T11:49:57.908Z,39.39
2023-03-29T11:55:26.322Z,39.39
2023-03-29T12:00:56.591Z,39.38
2023-03-29T12:06:30.145Z,39.30
2023-03-29T12:11:59.465Z,39.64
2023-03-29T12:17:29.377Z,39.45
2023-03-29T12:22:52.226Z,39.85
2023-03-29T12:29:05.688Z,39.57
2023-03-29T12:34:56.146Z,39.52
2023-03-29T12:40:20.862Z,39.68
2023-03-29T12:45:48.976Z,39.49
2023-03-29T12:51:24.333Z,39.89
2023-03-29T12:56:52.471Z,39.86
2023-03-29T13:02:14.472Z,39.62
2023-03-29T13:07:47.781Z,39.64
2023-03-29T13:13:18.092Z,39.39
2023-03-29T13:19:12.812Z,39.36
2023-03-29T13:25:06.411Z,39.57
2023-03-29T13:30:46.186Z,39.45
2023-03-29T13:36:21.406Z,39.54
2023-03-29T13:41:43.395Z,39.83
2023-03-29T13:47:33.401Z,39.27
2023-03-29T13:53:04.238Z,39.61
2023-03-29T13:58:35.506Z,39.34
2023-03-29T14:03:59.091Z,39.25
2023-03-29T14:09:28.453Z,39.33
2023-03-29T14:15:03.871Z,39.46
2023-03-29T14:20:26.310Z,39.37
2023-03-29T14:25:48.406Z,39.72
2023-03-29T14:31:18.422Z,39.89
2023-03-29T14:36:40.839Z,39.47
2023-03-29T14:42:03.047Z,39.84
2023-03-29T14:47:29.598Z,39.80
2023-03-29T14:52:52.625Z,40.11
2023-03-29T14:58:20.417Z,39.76
2023-03-29T15:03:44.975Z,39.77
2023-03-29T15:09:08.214Z,39.92
2023-03-29T15:14:35.755Z,39.95
2023-03-29T15:20:13.409Z,40.08
2023-03-29T15:25:38.284Z,40.27
2023-03-29T15:36:28.126Z,40.23
2023-03-29T15:47:13.902Z,39.98
2023-03-29T15:52:36.393Z,40.45
2023-03-29T15:57:58.430Z,40.13
2023-03-29T16:03:22.597Z,40.11
2023-03-29T16:08:44.446Z,40.45
2023-03-29T16:14:27.977Z,40.54
2023-03-29T16:19:49.903Z,40.59
2023-03-29T16:25:18.008Z,40.62
2023-03-29T16:30:40.161Z,40.56
2023-03-29T16:36:02.306Z,40.58
2023-03-29T16:41:24.881Z,40.64
2023-03-29T16:46:46.948Z,40.39
2023-03-29T16:52:08.910Z,39.72
2023-03-29T16:57:30.817Z,39.36
2023-03-29T17:02:52.906Z,39.11
2023-03-29T17:08:14.850Z,38.91
2023-03-29T17:13:37.683Z,38.96
2023-03-29T17:19:02.692Z,38.97
2023-03-29T17:24:24.586Z,38.92
2023-03-29T17:29:46.493Z,38.99
2023-03-29T17:35:10.517Z,39.24
2023-03-29T17:40:32.467Z,39.45
2023-03-29T17:45:55.862Z,39.14
2023-03-29T17:51:19.993Z,39.67
2023-03-29T17:56:41.947Z,39.77
2023-03-29T18:02:05.788Z,39.57
2023-03-29T18:07:31.712Z,39.41
2023-03-29T18:12:54.352Z,39.88
2023-03-29T18:18:16.169Z,39.90
2023-03-29T18:23:42.490Z,39.52
2023-03-29T18:29:04.478Z,39.70
2023-03-29T18:34:26.576Z,39.34
2023-03-29T18:39:48.510Z,39.38
2023-03-29T18:45:11.221Z,39.29
2023-03-29T18:50:33.159Z,39.46
2023-03-29T18:55:56.017Z,38.95
2023-03-29T19:01:18.159Z,38.62
2023-03-29T19:06:42.883Z,38.72
2023-03-29T19:12:05.085Z,38.67
2023-03-29T19:17:28.131Z,38.56
2023-03-29T19:22:50.111Z,38.24
2023-03-29T19:28:12.040Z,38.29
2023-03-29T19:33:34.734Z,38.26
2023-03-29T19:38:57.002Z,38.14
2023-03-29T19:44:20.379Z,38.21
2023-03-29T19:49:42.221Z,38.27
2023-03-29T19:55:04.673Z,38.25
2023-03-29T20:00:26.608Z,38.77
2023-03-29T20:05:48.445Z,38.70
2023-03-29T20:11:14.064Z,38.56
2023-03-29T20:16:36.003Z,39.02
2023-03-29T20:21:58.429Z,39.13
2023-03-29T20:27:21.657Z,39.25
2023-03-29T20:32:43.570Z,39.23
2023-03-29T20:38:05.419Z,39.41
2023-03-29T20:43:27.336Z,39.56
2023-03-29T20:48:55.334Z,39.50
2023-03-29T20:54:18.533Z,39.38
2023-03-29T20:59:41.788Z,39.83
2023-03-29T21:05:04.423Z,39.79
2023-03-29T21:10:27.788Z,39.87
2023-03-29T21:15:49.768Z,39.75
2023-03-29T21:21:12.465Z,39.86
2023-03-29T21:26:34.973Z,39.74
2023-03-29T21:31:56.939Z,39.49
2023-03-29T21:37:18.772Z,39.81
2023-03-29T21:42:40.748Z,39.70
2023-03-29T21:48:02.557Z,39.89
2023-03-29T21:53:24.913Z,39.78
2023-03-29T21:58:46.988Z,40.04
2023-03-29T22:04:08.997Z,39.69
2023-03-29T22:09:32.727Z,40.09
2023-03-29T22:14:54.947Z,39.82
2023-03-29T22:20:18.617Z,39.62
2023-03-29T22:25:40.374Z,39.95
2023-03-29T22:31:04.358Z,39.92
2023-03-29T22:36:31.487Z,40.02
2023-03-29T22:41:53.315Z,39.73
2023-03-29T22:47:15.528Z,39.82
2023-03-29T22:52:37.400Z,39.83
2023-03-29T22:57:59.211Z,40.13
2023-03-29T23:03:23.388Z,39.65
2023-03-29T23:08:45.346Z,39.80
2023-03-29T23:14:07.801Z,39.77
2023-03-29T23:19:29.617Z,39.76
2023-03-29T23:24:51.448Z,39.86
2023-03-29T23:30:13.320Z,39.96
2023-03-29T23:35:35.185Z,39.71
2023-03-29T23:41:01.332Z,39.90
2023-03-29T23:46:23.560Z,39.80
2023-03-29T23:51:48.495Z,39.90
2023-03-29T23:57:11.431Z,39.91
